Time;durP1;ratioP1;P1;durP2;ratioP2;P2;SDS_P1;SDS_P2;PMS_P1;PMS_P2;Temp;Humidity;BMP_temperature;BMP_pressure;BME280_temperature;BME280_humidity;BME280_pressure;Samples;Min_cycle;Max_cycle;Signal;HPM_P1;HPM_P2
2023/03/02 00:01:40;;;;;;;50.67;26.57;;;;;;;;;;5014087;28;20046;-62
2023/03/02 00:04:08;;;;;;;50.00;28.67;;;;;;;;;;5016215;28;20293;-61
2023/03/02 00:06:55;;;;;;;49.17;27.13;;;;;;;;;;5016749;28;20104;-62
2023/03/02 00:09:21;;;;;;;58.00;28.30;;;;;;;;;;5017891;28;20588;-61
2023/03/02 00:11:47;;;;;;;47.07;26.93;;;;;;;;;;5014018;28;20655;-62
2023/03/02 00:14:13;;;;;;;52.47;26.43;;;;;;;;;;5014818;28;20045;-61
2023/03/02 00:16:40;;;;;;;49.73;27.50;;;;;;;;;;5016087;28;20034;-61
2023/03/02 00:19:06;;;;;;;48.63;26.07;;;;;;;;;;5014873;28;20049;-62
2023/03/02 00:21:32;;;;;;;48.53;26.40;;;;;;;;;;5017082;28;20056;-61
2023/03/02 00:23:58;;;;;;;48.63;26.67;;;;;;;;;;5017218;28;20042;-61
2023/03/02 00:26:24;;;;;;;46.00;25.87;;;;;;;;;;5015723;28;20103;-61
2023/03/02 00:28:50;;;;;;;48.00;27.17;;;;;;;;;;5012679;28;20041;-62
2023/03/02 00:31:16;;;;;;;47.50;28.03;;;;;;;;;;5088423;28;20056;-62
2023/03/02 00:33:43;;;;;;;45.80;26.07;;;;;;;;;;5013044;28;20135;-62
2023/03/02 00:36:19;;;;;;;53.60;28.50;;;;;;;;;;5018598;28;20561;-61
2023/03/02 00:38:45;;;;;;;46.33;26.63;;;;;;;;;;5013025;28;20054;-61
2023/03/02 00:41:12;;;;;;;50.23;27.57;;;;;;;;;;5016701;28;20850;-61
2023/03/02 00:43:38;;;;;;;50.57;27.13;;;;;;;;;;5013400;28;20416;-62
2023/03/02 00:46:08;;;;;;;50.60;28.07;;;;;;;;;;5018157;28;20154;-61
2023/03/02 00:48:34;;;;;;;50.70;28.53;;;;;;;;;;5015746;28;20678;-62
2023/03/02 00:51:00;;;;;;;43.00;27.37;;;;;;;;;;5016583;28;20128;-61
2023/03/02 00:53:26;;;;;;;44.43;26.73;;;;;;;;;;5014899;28;20041;-61
2023/03/02 00:55:53;;;;;;;46.43;25.93;;;;;;;;;;5010542;28;20493;-61
2023/03/02 00:58:20;;;;;;;45.17;26.80;;;;;;;;;;5014796;28;20072;-62
2023/03/02 01:00:46;;;;;;;48.03;27.87;;;;;;;;;;5017511;28;20034;-61
2023/03/02 01:03:12;;;;;;;47.10;25.27;;;;;;;;;;5012600;28;20046;-61
2023/03/02 01:05:38;;;;;;;52.47;27.67;;;;;;;;;;5022858;28;20069;-61
2023/03/02 01:08:05;;;;;;;51.33;27.63;;;;;;;;;;5018854;28;20052;-61
2023/03/02 01:10:31;;;;;;;46.37;27.13;;;;;;;;;;5019862;28;20152;-62
2023/03/02 01:12:57;;;;;;;49.83;27.57;;;;;;;;;;5013975;28;20049;-61
2023/03/02 01:15:23;;;;;;;51.43;27.87;;;;;;;;;;5014382;28;20186;-61
2023/03/02 01:17:50;;;;;;;53.50;29.00;;;;;;;;;;5015670;28;20125;-61
2023/03/02 01:20:16;;;;;;;52.60;28.60;;;;;;;;;;5014159;28;20535;-61
2023/03/02 01:22:43;;;;;;;55.90;29.63;;;;;;;;;;5018554;28;20102;-61
2023/03/02 01:25:09;;;;;;;53.80;30.70;;;;;;;;;;5015273;28;20528;-61
2023/03/02 01:27:35;;;;;;;55.30;30.20;;;;;;;;;;5018932;28;20033;-61
2023/03/02 01:30:01;;;;;;;60.27;30.30;;;;;;;;;;5021467;28;20565;-61
2023/03/02 01:32:27;;;;;;;55.60;30.80;;;;;;;;;;5018396;28;20420;-61
2023/03/02 01:34:53;;;;;;;55.40;31.30;;;;;;;;;;5021876;28;20403;-62
2023/03/02 01:37:21;;;;;;;64.90;32.50;;;;;;;;;;5020487;28;20658;-62
2023/03/02 01:39:47;;;;;;;61.50;32.63;;;;;;;;;;5018013;28;20175;-62
2023/03/02 01:42:13;;;;;;;61.43;32.83;;;;;;;;;;5018432;28;20045;-62
2023/03/02 01:44:45;;;;;;;64.53;31.93;;;;;;;;;;5020379;28;20119;-62
2023/03/02 01:47:21;;;;;;;63.03;32.80;;;;;;;;;;5016787;28;20065;-62
2023/03/02 01:50:10;;;;;;;63.07;32.80;;;;;;;;;;5018614;28;20765;-62
2023/03/02 01:52:39;;;;;;;55.63;30.17;;;;;;;;;;5018234;28;20052;-61
2023/03/02 01:55:07;;;;;;;57.97;29.60;;;;;;;;;;5017025;28;20042;-62
2023/03/02 01:57:42;;;;;;;61.87;32.83;;;;;;;;;;5016491;28;20038;-62
2023/03/02 02:00:09;;;;;;;58.67;30.73;;;;;;;;;;5018124;28;20045;-61
2023/03/02 02:02:35;;;;;;;60.90;29.27;;;;;;;;;;5019233;28;20041;-60
2023/03/02 02:05:02;;;;;;;65.93;32.27;;;;;;;;;;5021371;27;20049;-60
2023/03/02 02:07:28;;;;;;;59.83;33.07;;;;;;;;;;5021120;28;20050;-60
2023/03/02 02:09:55;;;;;;;65.17;34.07;;;;;;;;;;5017780;28;20107;-61
2023/03/02 02:12:22;;;;;;;64.23;32.93;;;;;;;;;;5018753;28;20060;-60
2023/03/02 02:14:49;;;;;;;57.80;31.67;;;;;;;;;;5016502;28;20048;-60
2023/03/02 02:17:16;;;;;;;61.83;31.67;;;;;;;;;;5017107;28;20053;-60
2023/03/02 02:19:50;;;;;;;60.80;29.60;;;;;;;;;;5016900;28;20688;-60
2023/03/02 02:22:21;;;;;;;63.83;32.10;;;;;;;;;;5016572;28;20081;-61
2023/03/02 02:24:51;;;;;;;67.40;33.67;;;;;;;;;;5021169;28;20519;-60
2023/03/02 02:27:17;;;;;;;58.10;30.80;;;;;;;;;;5016942;28;20121;-60
2023/03/02 02:29:46;;;;;;;57.97;29.73;;;;;;;;;;5016537;28;20819;-61
2023/03/02 02:32:19;;;;;;;54.67;28.30;;;;;;;;;;5016518;28;20053;-61
2023/03/02 02:35:14;;;;;;;55.55;30.00;;;;;;;;;;5015162;28;20465;-61
2023/03/02 02:37:43;;;;;;;51.30;28.90;;;;;;;;;;5009633;28;20741;-61
2023/03/02 02:40:16;;;;;;;54.27;28.57;;;;;;;;;;5015987;28;20054;-61
2023/03/02 02:42:44;;;;;;;57.20;31.42;;;;;;;;;;5020529;28;20150;-61
2023/03/02 02:45:21;;;;;;;63.20;31.47;;;;;;;;;;5017671;28;20102;-61
2023/03/02 02:47:48;;;;;;;61.10;29.93;;;;;;;;;;5015275;28;20107;-61
2023/03/02 02:50:23;;;;;;;59.60;31.40;;;;;;;;;;5011645;28;20046;-61
2023/03/02 02:52:53;;;;;;;55.10;28.50;;;;;;;;;;5017589;28;20077;-60
2023/03/02 02:55:20;;;;;;;62.00;30.30;;;;;;;;;;5014773;28;20051;-60
2023/03/02 02:57:47;;;;;;;52.93;27.33;;;;;;;;;;5017687;28;20054;-61
2023/03/02 03:00:17;;;;;;;54.57;27.77;;;;;;;;;;5017840;28;20046;-60
2023/03/02 03:02:45;;;;;;;50.13;26.73;;;;;;;;;;5017460;28;20509;-61
2023/03/02 03:05:14;;;;;;;56.37;28.90;;;;;;;;;;5024179;27;20042;-61
2023/03/02 03:07:40;;;;;;;56.40;30.57;;;;;;;;;;5014671;28;20038;-61
2023/03/02 03:10:10;;;;;;;58.90;29.53;;;;;;;;;;5032946;27;20052;-61
2023/03/02 03:12:37;;;;;;;56.37;30.17;;;;;;;;;;5026503;27;20046;-60
2023/03/02 03:15:04;;;;;;;51.37;28.10;;;;;;;;;;5024475;27;20040;-60
2023/03/02 03:17:30;;;;;;;57.37;29.00;;;;;;;;;;5013716;28;20042;-60
2023/03/02 03:20:05;;;;;;;57.87;29.27;;;;;;;;;;5015869;28;20417;-60
2023/03/02 03:22:32;;;;;;;59.27;29.17;;;;;;;;;;5013942;28;20046;-60
2023/03/02 03:24:57;;;;;;;59.90;28.13;;;;;;;;;;5015351;28;20057;-60
2023/03/02 03:27:23;;;;;;;56.10;29.17;;;;;;;;;;5014047;28;20323;-60
2023/03/02 03:29:50;;;;;;;45.43;26.80;;;;;;;;;;5016029;28;20517;-60
2023/03/02 03:32:16;;;;;;;54.93;26.97;;;;;;;;;;5012413;28;20054;-60
2023/03/02 03:34:42;;;;;;;56.00;27.17;;;;;;;;;;5014035;28;20073;-61
2023/03/02 03:37:08;;;;;;;52.87;25.77;;;;;;;;;;5011837;28;20042;-61
2023/03/02 03:39:36;;;;;;;56.70;27.37;;;;;;;;;;5005891;28;20503;-61
2023/03/02 03:42:02;;;;;;;50.53;25.73;;;;;;;;;;5005641;28;20050;-61
2023/03/02 03:44:28;;;;;;;54.10;28.00;;;;;;;;;;5004906;28;20050;-61
2023/03/02 03:46:54;;;;;;;57.77;27.00;;;;;;;;;;5012161;28;20302;-61
2023/03/02 03:49:20;;;;;;;51.63;27.10;;;;;;;;;;5013523;28;20524;-61
2023/03/02 03:51:46;;;;;;;54.33;24.60;;;;;;;;;;5012899;28;20439;-61
2023/03/02 03:54:13;;;;;;;50.00;25.13;;;;;;;;;;5013713;28;20114;-61
2023/03/02 03:56:44;;;;;;;47.60;23.83;;;;;;;;;;5013887;28;20077;-60
2023/03/02 03:59:12;;;;;;;43.43;22.17;;;;;;;;;;5013631;28;20126;-62
2023/03/02 04:01:40;;;;;;;48.00;24.10;;;;;;;;;;5013817;28;20054;-60
2023/03/02 04:04:07;;;;;;;42.03;22.30;;;;;;;;;;5014368;27;20508;-62
2023/03/02 04:06:33;;;;;;;40.27;22.80;;;;;;;;;;5012938;28;20052;-61
2023/03/02 04:09:03;;;;;;;45.70;24.60;;;;;;;;;;5012970;28;20038;-60
2023/03/02 04:11:33;;;;;;;49.30;24.20;;;;;;;;;;5013124;28;20038;-61
2023/03/02 04:13:59;;;;;;;44.33;23.70;;;;;;;;;;5010411;28;20041;-61
2023/03/02 04:16:26;;;;;;;46.80;23.03;;;;;;;;;;5011361;28;20514;-61
2023/03/02 04:18:52;;;;;;;51.13;23.80;;;;;;;;;;5012647;28;20046;-62
2023/03/02 04:21:18;;;;;;;49.83;24.73;;;;;;;;;;5012677;28;20037;-61
2023/03/02 04:23:45;;;;;;;48.50;24.30;;;;;;;;;;5014718;28;20528;-61
2023/03/02 04:26:11;;;;;;;46.70;24.70;;;;;;;;;;5012892;28;20050;-62
2023/03/02 04:28:37;;;;;;;49.00;23.60;;;;;;;;;;5013680;28;20788;-61
2023/03/02 04:31:03;;;;;;;50.10;24.13;;;;;;;;;;5013264;28;20072;-61
2023/03/02 04:33:29;;;;;;;56.80;25.83;;;;;;;;;;5011236;28;20346;-61
2023/03/02 04:35:55;;;;;;;57.47;26.97;;;;;;;;;;5013692;28;20052;-61
2023/03/02 04:38:21;;;;;;;59.33;26.00;;;;;;;;;;5012145;28;20049;-62
2023/03/02 04:40:47;;;;;;;55.07;26.87;;;;;;;;;;5083315;28;21018;-61
2023/03/02 04:43:13;;;;;;;52.37;27.00;;;;;;;;;;5015922;28;20054;-61
2023/03/02 04:45:40;;;;;;;51.07;27.17;;;;;;;;;;5019097;28;20046;-61
2023/03/02 04:48:11;;;;;;;53.73;25.87;;;;;;;;;;5015748;28;20046;-61
2023/03/02 04:50:37;;;;;;;52.60;25.87;;;;;;;;;;5015354;28;20337;-61
2023/03/02 04:53:03;;;;;;;53.53;24.53;;;;;;;;;;5013128;28;20138;-60
2023/03/02 04:55:31;;;;;;;53.47;22.27;;;;;;;;;;5013241;28;20049;-61
2023/03/02 04:57:57;;;;;;;49.07;25.00;;;;;;;;;;5016958;28;20045;-62
2023/03/02 05:00:24;;;;;;;51.53;23.40;;;;;;;;;;5021486;28;20949;-62
2023/03/02 05:02:50;;;;;;;50.87;23.00;;;;;;;;;;5017567;28;20454;-61
2023/03/02 05:05:18;;;;;;;49.17;24.03;;;;;;;;;;5016363;28;20034;-62
2023/03/02 05:07:44;;;;;;;55.53;25.27;;;;;;;;;;5013942;28;20832;-62
2023/03/02 05:10:11;;;;;;;59.33;25.87;;;;;;;;;;5016842;28;20297;-62
2023/03/02 05:15:23;;;;;;;76.40;27.20;;;;;;;;;;5016552;28;20516;-62
2023/03/02 05:17:49;;;;;;;61.67;26.97;;;;;;;;;;5021610;28;20046;-62
2023/03/02 05:20:15;;;;;;;56.33;25.73;;;;;;;;;;5016833;28;20770;-60
2023/03/02 05:22:41;;;;;;;61.93;25.87;;;;;;;;;;5016875;28;20040;-61
2023/03/02 05:25:07;;;;;;;53.37;25.00;;;;;;;;;;5014331;28;20261;-61
2023/03/02 05:27:34;;;;;;;65.93;27.17;;;;;;;;;;5017571;28;20048;-62
2023/03/02 05:30:00;;;;;;;60.97;26.27;;;;;;;;;;5013584;28;20564;-61
2023/03/02 05:32:26;;;;;;;68.70;28.43;;;;;;;;;;5013077;28;20135;-61
2023/03/02 05:34:52;;;;;;;59.07;28.03;;;;;;;;;;5011093;28;20053;-63
2023/03/02 05:37:18;;;;;;;80.13;30.23;;;;;;;;;;5017495;28;20315;-60
2023/03/02 05:39:44;;;;;;;62.57;27.67;;;;;;;;;;5014778;28;20355;-61
2023/03/02 05:42:10;;;;;;;72.13;26.93;;;;;;;;;;5017149;28;20052;-61
2023/03/02 05:44:36;;;;;;;58.10;25.13;;;;;;;;;;5016622;28;20037;-62
2023/03/02 05:47:02;;;;;;;67.30;30.73;;;;;;;;;;5018084;28;20042;-61
2023/03/02 05:49:28;;;;;;;110.37;32.83;;;;;;;;;;5026418;28;20069;-61
2023/03/02 05:51:54;;;;;;;76.30;28.07;;;;;;;;;;5012492;28;20179;-61
2023/03/02 05:54:20;;;;;;;103.13;28.50;;;;;;;;;;5048864;27;20043;-61
2023/03/02 05:56:47;;;;;;;73.97;28.37;;;;;;;;;;5049056;27;20052;-61
2023/03/02 05:59:13;;;;;;;76.03;28.27;;;;;;;;;;5019552;28;20048;-61
2023/03/02 06:01:39;;;;;;;88.77;28.50;;;;;;;;;;5022694;28;20221;-61
2023/03/02 06:04:05;;;;;;;63.20;28.33;;;;;;;;;;5025692;28;20132;-61
2023/03/02 06:06:31;;;;;;;69.30;27.80;;;;;;;;;;5010519;28;20050;-61
2023/03/02 06:08:57;;;;;;;87.37;27.63;;;;;;;;;;5013548;28;20041;-61
2023/03/02 06:11:23;;;;;;;69.43;26.70;;;;;;;;;;5028028;28;20047;-61
2023/03/02 06:13:49;;;;;;;81.13;29.43;;;;;;;;;;5022101;28;20045;-61
2023/03/02 06:16:15;;;;;;;83.50;33.67;;;;;;;;;;5018888;28;20045;-61
2023/03/02 06:18:41;;;;;;;72.40;29.07;;;;;;;;;;5021391;28;20057;-61
2023/03/02 06:21:08;;;;;;;75.93;31.17;;;;;;;;;;5011705;28;20151;-61
2023/03/02 06:23:34;;;;;;;80.87;29.87;;;;;;;;;;5024948;28;20049;-61
2023/03/02 06:26:00;;;;;;;103.37;32.90;;;;;;;;;;5019574;28;20304;-61
2023/03/02 06:28:26;;;;;;;94.50;33.47;;;;;;;;;;5014720;28;20472;-61
2023/03/02 06:30:52;;;;;;;81.33;30.90;;;;;;;;;;5014768;28;20076;-61
2023/03/02 06:33:20;;;;;;;94.17;32.23;;;;;;;;;;5025699;28;20142;-61
2023/03/02 06:35:46;;;;;;;119.07;32.87;;;;;;;;;;5014837;28;20061;-61
2023/03/02 06:38:12;;;;;;;123.33;34.83;;;;;;;;;;5016764;28;20052;-61
2023/03/02 06:40:38;;;;;;;78.57;31.40;;;;;;;;;;5019092;28;21915;-61
2023/03/02 06:43:04;;;;;;;76.83;29.73;;;;;;;;;;5016631;28;20042;-61
2023/03/02 06:45:32;;;;;;;98.10;33.23;;;;;;;;;;5019448;28;20332;-61
2023/03/02 06:47:58;;;;;;;98.07;29.93;;;;;;;;;;5013820;28;20052;-61
2023/03/02 06:50:24;;;;;;;93.67;33.43;;;;;;;;;;5014127;28;20412;-62
2023/03/02 06:52:50;;;;;;;93.97;34.10;;;;;;;;;;5008670;28;20297;-61
2023/03/02 06:55:16;;;;;;;103.60;31.67;;;;;;;;;;5024878;28;20049;-61
2023/03/02 06:57:42;;;;;;;261.87;53.60;;;;;;;;;;5021346;28;20080;-61
2023/03/02 07:00:13;;;;;;;122.77;35.47;;;;;;;;;;5013627;28;20074;-61
2023/03/02 07:02:39;;;;;;;85.10;31.37;;;;;;;;;;5024745;28;20514;-62
2023/03/02 07:05:06;;;;;;;894.87;133.43;;;;;;;;;;5014380;28;20649;-61
2023/03/02 07:07:32;;;;;;;657.30;91.53;;;;;;;;;;5016129;28;20045;-61
2023/03/02 07:09:58;;;;;;;169.60;38.53;;;;;;;;;;5024279;28;20406;-61
2023/03/02 07:12:24;;;;;;;117.57;34.67;;;;;;;;;;5017159;28;20049;-61
2023/03/02 07:14:50;;;;;;;144.73;35.40;;;;;;;;;;5010268;28;20049;-61
2023/03/02 07:17:16;;;;;;;309.83;47.40;;;;;;;;;;5021096;28;20046;-61
2023/03/02 07:19:42;;;;;;;208.97;38.20;;;;;;;;;;5017066;28;20501;-61
2023/03/02 07:22:08;;;;;;;164.50;35.97;;;;;;;;;;5019078;28;20045;-61
2023/03/02 07:24:34;;;;;;;159.03;39.97;;;;;;;;;;5026104;28;20128;-60
2023/03/02 07:27:00;;;;;;;217.00;38.93;;;;;;;;;;5093046;28;20843;-61
2023/03/02 07:29:26;;;;;;;84.20;33.03;;;;;;;;;;5022412;28;20053;-61
2023/03/02 07:31:55;;;;;;;97.93;33.60;;;;;;;;;;5022110;28;20068;-61
2023/03/02 07:34:26;;;;;;;94.07;32.07;;;;;;;;;;5015906;28;20699;-61
2023/03/02 07:36:52;;;;;;;254.60;43.23;;;;;;;;;;5023207;28;20357;-61
2023/03/02 07:39:18;;;;;;;108.03;32.17;;;;;;;;;;5015152;28;20054;-61
2023/03/02 07:41:44;;;;;;;203.50;40.17;;;;;;;;;;5017149;28;20409;-61
2023/03/02 07:44:10;;;;;;;71.57;30.53;;;;;;;;;;5013600;28;20045;-60
2023/03/02 07:46:36;;;;;;;206.33;40.97;;;;;;;;;;5010469;28;20386;-61
2023/03/02 07:49:03;;;;;;;159.90;34.87;;;;;;;;;;5025620;28;20081;-61
2023/03/02 07:51:29;;;;;;;84.00;31.57;;;;;;;;;;5016907;28;20408;-60
2023/03/02 07:53:55;;;;;;;73.43;26.73;;;;;;;;;;5012474;28;20061;-61
2023/03/02 07:56:21;;;;;;;118.00;28.73;;;;;;;;;;5022809;28;20052;-60
2023/03/02 07:58:47;;;;;;;76.40;24.97;;;;;;;;;;5015408;28;20052;-61
2023/03/02 08:01:13;;;;;;;70.47;27.40;;;;;;;;;;5005851;28;20157;-61
2023/03/02 08:03:39;;;;;;;50.87;22.23;;;;;;;;;;5013461;28;20061;-61
2023/03/02 08:06:10;;;;;;;54.17;22.33;;;;;;;;;;5006242;28;20045;-61
2023/03/02 08:08:36;;;;;;;68.90;24.47;;;;;;;;;;5017555;28;20085;-61
2023/03/02 08:11:06;;;;;;;275.90;38.53;;;;;;;;;;5017055;28;20041;-60
2023/03/02 08:13:32;;;;;;;43.83;22.63;;;;;;;;;;5024870;28;20053;-61
2023/03/02 08:16:02;;;;;;;48.00;23.73;;;;;;;;;;5024265;28;20049;-61
2023/03/02 08:18:28;;;;;;;50.30;24.17;;;;;;;;;;5024781;28;20045;-61
2023/03/02 08:20:54;;;;;;;49.67;24.77;;;;;;;;;;5022494;28;20049;-61
2023/03/02 08:23:21;;;;;;;42.57;23.00;;;;;;;;;;5022829;28;20065;-61
2023/03/02 08:25:47;;;;;;;43.37;24.43;;;;;;;;;;5017135;28;20136;-61
2023/03/02 08:28:13;;;;;;;49.97;24.50;;;;;;;;;;5010827;28;20550;-61
2023/03/02 08:30:39;;;;;;;43.33;23.63;;;;;;;;;;5014082;28;20053;-61
2023/03/02 08:33:05;;;;;;;74.53;26.63;;;;;;;;;;5015325;28;20053;-61
2023/03/02 08:35:32;;;;;;;48.60;24.20;;;;;;;;;;5006733;28;20045;-61
2023/03/02 08:37:58;;;;;;;38.83;22.00;;;;;;;;;;5011613;28;20050;-61
2023/03/02 08:40:24;;;;;;;50.00;23.17;;;;;;;;;;5011941;28;20041;-61
2023/03/02 08:42:55;;;;;;;50.40;22.70;;;;;;;;;;5025334;28;20049;-60
2023/03/02 08:45:22;;;;;;;41.03;21.73;;;;;;;;;;5022269;28;20058;-61
2023/03/02 08:47:48;;;;;;;38.10;21.43;;;;;;;;;;5006037;28;20115;-60
2023/03/02 08:50:15;;;;;;;53.30;22.87;;;;;;;;;;5023374;28;20048;-60
2023/03/02 08:52:41;;;;;;;40.00;23.40;;;;;;;;;;5022532;28;20046;-60
2023/03/02 08:55:07;;;;;;;41.10;21.97;;;;;;;;;;5017344;28;20050;-61
2023/03/02 08:57:33;;;;;;;37.03;22.97;;;;;;;;;;5015976;28;20042;-61
2023/03/02 08:59:59;;;;;;;35.03;21.20;;;;;;;;;;5014460;28;20065;-62
2023/03/02 09:02:26;;;;;;;35.53;21.73;;;;;;;;;;5012993;28;20041;-62
2023/03/02 09:04:52;;;;;;;41.70;22.07;;;;;;;;;;5015500;28;20086;-62
2023/03/02 09:07:18;;;;;;;41.80;23.97;;;;;;;;;;5013144;28;20416;-60
2023/03/02 09:09:44;;;;;;;40.77;21.70;;;;;;;;;;5014439;28;20041;-61
2023/03/02 09:12:10;;;;;;;36.60;22.27;;;;;;;;;;5014486;28;20049;-61
2023/03/02 09:14:36;;;;;;;33.67;20.43;;;;;;;;;;5013519;28;20045;-61
2023/03/02 09:17:02;;;;;;;33.33;20.87;;;;;;;;;;5015865;28;20053;-62
2023/03/02 09:19:29;;;;;;;34.53;20.57;;;;;;;;;;5014618;28;20060;-62
2023/03/02 09:21:55;;;;;;;40.10;20.63;;;;;;;;;;5011545;28;20048;-62
2023/03/02 09:24:21;;;;;;;33.13;20.67;;;;;;;;;;5023091;28;20090;-62
2023/03/02 09:26:47;;;;;;;36.60;21.00;;;;;;;;;;5008285;28;20394;-62
2023/03/02 09:29:13;;;;;;;38.43;20.00;;;;;;;;;;5006408;28;20505;-62
2023/03/02 09:31:39;;;;;;;39.33;21.73;;;;;;;;;;5004195;28;20099;-62
2023/03/02 09:34:05;;;;;;;35.63;19.23;;;;;;;;;;5021220;28;20054;-62
2023/03/02 09:36:31;;;;;;;33.43;20.37;;;;;;;;;;5020858;28;20049;-62
2023/03/02 09:38:57;;;;;;;30.63;19.47;;;;;;;;;;5022166;28;20136;-63
2023/03/02 09:41:34;;;;;;;34.83;20.37;;;;;;;;;;5005345;28;20050;-62
2023/03/02 09:44:00;;;;;;;38.03;20.67;;;;;;;;;;5005507;28;20042;-62
2023/03/02 09:46:58;;;;;;;30.67;18.97;;;;;;;;;;5007180;28;20042;-62
2023/03/02 09:49:33;;;;;;;30.13;18.53;;;;;;;;;;5018978;28;20086;-60
2023/03/02 09:52:13;;;;;;;29.83;18.80;;;;;;;;;;5007047;28;20046;-62
2023/03/02 09:54:40;;;;;;;27.60;16.97;;;;;;;;;;5011651;28;20042;-62
2023/03/02 09:57:18;;;;;;;32.43;17.20;;;;;;;;;;5027331;28;20048;-60
2023/03/02 09:59:46;;;;;;;25.73;17.20;;;;;;;;;;5027642;28;20042;-60
2023/03/02 10:02:25;;;;;;;27.73;16.87;;;;;;;;;;5027170;28;20053;-60
2023/03/02 10:04:53;;;;;;;26.47;17.73;;;;;;;;;;5017735;28;20466;-60
2023/03/02 10:07:25;;;;;;;26.30;17.47;;;;;;;;;;5006773;28;20088;-59
2023/03/02 10:09:52;;;;;;;29.23;18.33;;;;;;;;;;5008030;28;20443;-60
2023/03/02 10:12:24;;;;;;;25.17;16.63;;;;;;;;;;5006952;28;20053;-62
2023/03/02 10:14:56;;;;;;;27.20;17.50;;;;;;;;;;5011901;28;20050;-59
2023/03/02 10:17:28;;;;;;;27.13;17.63;;;;;;;;;;5023121;28;20124;-60
2023/03/02 10:19:57;;;;;;;27.87;18.27;;;;;;;;;;5024623;28;20508;-61
2023/03/02 10:22:33;;;;;;;25.60;17.53;;;;;;;;;;5018558;28;20071;-60
2023/03/02 10:25:08;;;;;;;28.80;16.93;;;;;;;;;;5009119;28;20046;-60
2023/03/02 10:27:44;;;;;;;25.90;16.70;;;;;;;;;;5007518;28;20054;-60
2023/03/02 10:30:19;;;;;;;23.67;15.50;;;;;;;;;;5007397;28;20862;-60
2023/03/02 10:32:50;;;;;;;23.77;15.70;;;;;;;;;;5007058;28;20046;-60
2023/03/02 10:35:18;;;;;;;20.53;14.80;;;;;;;;;;5007876;28;20050;-61
2023/03/02 10:37:44;;;;;;;25.83;16.40;;;;;;;;;;5006816;28;20101;-61
2023/03/02 10:40:18;;;;;;;21.17;15.67;;;;;;;;;;5006617;28;20050;-61
2023/03/02 10:42:44;;;;;;;23.83;15.07;;;;;;;;;;5007502;28;20500;-61
2023/03/02 10:45:19;;;;;;;22.93;14.73;;;;;;;;;;5022568;28;20090;-61
2023/03/02 10:47:45;;;;;;;21.23;14.63;;;;;;;;;;5026837;28;20061;-61
2023/03/02 10:50:21;;;;;;;22.13;14.37;;;;;;;;;;5026901;28;20480;-61
2023/03/02 10:52:50;;;;;;;22.93;14.57;;;;;;;;;;5026353;28;20432;-61
2023/03/02 10:55:17;;;;;;;21.17;14.57;;;;;;;;;;5026026;28;20046;-61
2023/03/02 10:57:43;;;;;;;19.00;13.03;;;;;;;;;;5027505;28;20073;-61
2023/03/02 11:00:10;;;;;;;22.80;14.50;;;;;;;;;;5076188;28;20050;-61
2023/03/02 11:02:36;;;;;;;21.30;14.33;;;;;;;;;;5006594;28;20591;-61
2023/03/02 11:05:21;;;;;;;21.23;14.13;;;;;;;;;;5006227;28;20056;-61
2023/03/02 11:07:59;;;;;;;19.60;13.97;;;;;;;;;;5006497;28;20158;-61
2023/03/02 11:10:29;;;;;;;19.40;12.83;;;;;;;;;;5006345;28;20123;-61
2023/03/02 11:12:55;;;;;;;21.77;14.33;;;;;;;;;;5008652;28;20054;-61
2023/03/02 11:15:21;;;;;;;21.47;14.17;;;;;;;;;;5026398;28;20502;-61
2023/03/02 11:17:56;;;;;;;23.77;15.87;;;;;;;;;;5026582;28;20057;-61
2023/03/02 11:20:27;;;;;;;20.50;14.80;;;;;;;;;;5026450;28;20091;-61
2023/03/02 11:23:00;;;;;;;22.13;15.37;;;;;;;;;;5026350;28;20343;-61
2023/03/02 11:25:29;;;;;;;22.42;15.65;;;;;;;;;;5025677;28;20049;-61
2023/03/02 11:28:00;;;;;;;23.90;16.23;;;;;;;;;;5025683;28;20054;-61
2023/03/02 11:30:28;;;;;;;23.53;15.63;;;;;;;;;;5025932;28;20136;-61
2023/03/02 11:33:00;;;;;;;23.30;15.83;;;;;;;;;;5026071;28;20429;-61
2023/03/02 11:35:29;;;;;;;20.57;15.53;;;;;;;;;;5025885;28;20408;-61
2023/03/02 11:37:57;;;;;;;20.67;15.17;;;;;;;;;;5025910;28;20140;-61
2023/03/02 11:40:32;;;;;;;20.23;14.40;;;;;;;;;;5025847;28;20077;-61
2023/03/02 11:42:59;;;;;;;20.17;15.07;;;;;;;;;;5006732;28;20425;-62
2023/03/02 11:45:27;;;;;;;21.50;15.03;;;;;;;;;;5019087;28;20500;-61
2023/03/02 11:47:53;;;;;;;21.30;15.33;;;;;;;;;;5025800;28;20138;-62
2023/03/02 11:50:19;;;;;;;24.40;16.47;;;;;;;;;;5025717;28;20050;-61
2023/03/02 11:52:57;;;;;;;23.23;15.50;;;;;;;;;;5026118;28;20045;-61
2023/03/02 11:55:25;;;;;;;22.70;15.00;;;;;;;;;;5025278;28;20053;-61
2023/03/02 11:57:56;;;;;;;20.03;14.93;;;;;;;;;;5006294;28;20099;-61
2023/03/02 12:00:28;;;;;;;21.97;15.63;;;;;;;;;;5006016;28;20501;-61
2023/03/02 12:02:58;;;;;;;21.27;14.67;;;;;;;;;;5005440;28;20049;-61
2023/03/02 12:05:26;;;;;;;23.47;15.80;;;;;;;;;;5005492;28;20056;-61
2023/03/02 12:07:56;;;;;;;21.67;16.07;;;;;;;;;;5005842;28;20043;-61
2023/03/02 12:10:27;;;;;;;22.20;15.40;;;;;;;;;;5005922;28;20084;-61
2023/03/02 12:13:02;;;;;;;22.13;16.37;;;;;;;;;;5005318;28;20057;-61
2023/03/02 12:15:34;;;;;;;21.80;15.37;;;;;;;;;;5005622;28;20060;-61
2023/03/02 12:18:01;;;;;;;22.47;15.23;;;;;;;;;;5005560;28;20394;-62
2023/03/02 12:20:28;;;;;;;28.10;16.70;;;;;;;;;;5005190;28;20042;-61
2023/03/02 12:23:05;;;;;;;22.40;16.37;;;;;;;;;;5005949;28;20081;-61
2023/03/02 12:25:48;;;;;;;20.40;15.10;;;;;;;;;;5009035;28;20512;-61
2023/03/02 12:28:27;;;;;;;23.00;15.98;;;;;;;;;;5025113;28;20050;-61
2023/03/02 12:31:05;;;;;;;24.77;16.70;;;;;;;;;;5025088;28;20054;-61
2023/03/02 12:33:31;;;;;;;21.67;14.47;;;;;;;;;;5024699;28;20045;-61
2023/03/02 12:36:10;;;;;;;22.33;15.57;;;;;;;;;;5024997;28;20047;-61
2023/03/02 12:38:38;;;;;;;22.40;15.23;;;;;;;;;;5019661;28;20340;-61
2023/03/02 12:41:08;;;;;;;22.77;15.87;;;;;;;;;;5073074;28;20331;-61
2023/03/02 12:43:43;;;;;;;20.17;15.53;;;;;;;;;;5005275;28;20531;-61
2023/03/02 12:46:15;;;;;;;20.23;15.53;;;;;;;;;;5005010;28;20432;-61
2023/03/02 12:48:47;;;;;;;21.93;16.43;;;;;;;;;;5015506;28;20045;-64
2023/03/02 12:51:26;;;;;;;22.37;16.17;;;;;;;;;;5024886;28;20080;-61
2023/03/02 12:54:05;;;;;;;23.03;18.17;;;;;;;;;;5024995;28;20041;-61
2023/03/02 12:56:32;;;;;;;21.23;16.27;;;;;;;;;;5024534;28;20128;-61
2023/03/02 12:58:58;;;;;;;21.87;15.90;;;;;;;;;;5024899;28;20053;-61
2023/03/02 13:01:26;;;;;;;21.17;16.27;;;;;;;;;;5025024;28;20124;-61
2023/03/02 13:03:53;;;;;;;20.50;15.60;;;;;;;;;;5009600;28;20046;-61
2023/03/02 13:06:21;;;;;;;21.43;15.93;;;;;;;;;;5004659;28;20038;-61
2023/03/02 13:08:49;;;;;;;20.87;15.53;;;;;;;;;;5005545;28;20046;-61
2023/03/02 13:11:20;;;;;;;20.13;15.23;;;;;;;;;;5005420;28;20057;-61
2023/03/02 13:13:47;;;;;;;20.47;14.97;;;;;;;;;;5005265;28;20058;-61
2023/03/02 13:16:22;;;;;;;19.83;15.20;;;;;;;;;;5004888;28;20088;-61
2023/03/02 13:18:52;;;;;;;24.20;16.57;;;;;;;;;;5023827;28;20042;-61
2023/03/02 13:21:19;;;;;;;24.50;16.67;;;;;;;;;;5028564;28;20091;-61
2023/03/02 13:23:46;;;;;;;21.13;16.40;;;;;;;;;;5028467;28;20041;-61
2023/03/02 13:26:27;;;;;;;23.47;16.20;;;;;;;;;;5027850;28;20041;-61
2023/03/02 13:29:02;;;;;;;20.80;15.70;;;;;;;;;;5027727;28;20493;-61
2023/03/02 13:31:28;;;;;;;22.47;16.97;;;;;;;;;;5027912;28;20522;-61
2023/03/02 13:33:56;;;;;;;21.23;16.30;;;;;;;;;;5007866;28;20049;-61
2023/03/02 13:36:24;;;;;;;20.60;15.93;;;;;;;;;;5007985;28;20056;-61
2023/03/02 13:38:54;;;;;;;21.63;15.57;;;;;;;;;;5008368;28;20041;-62
2023/03/02 13:41:24;;;;;;;20.20;15.73;;;;;;;;;;5007980;28;20056;-61
2023/03/02 13:43:50;;;;;;;18.53;14.73;;;;;;;;;;5007883;28;20057;-61
2023/03/02 13:46:16;;;;;;;23.23;16.27;;;;;;;;;;5007845;28;20073;-61
2023/03/02 13:48:59;;;;;;;19.80;15.03;;;;;;;;;;5012703;28;20132;-61
2023/03/02 13:51:26;;;;;;;19.55;15.00;;;;;;;;;;5008033;28;20046;-61
2023/03/02 13:53:59;;;;;;;17.77;14.23;;;;;;;;;;5007444;28;20060;-61
2023/03/02 13:56:42;;;;;;;20.80;15.88;;;;;;;;;;5008098;28;20050;-61
2023/03/02 13:59:12;;;;;;;21.13;15.25;;;;;;;;;;5008071;28;20099;-61
2023/03/02 14:01:40;;;;;;;20.40;15.27;;;;;;;;;;5007719;28;20034;-61
2023/03/02 14:04:06;;;;;;;18.83;15.00;;;;;;;;;;5007785;28;20038;-61
2023/03/02 14:06:32;;;;;;;18.73;15.07;;;;;;;;;;5007167;28;20046;-62
2023/03/02 14:08:58;;;;;;;20.53;14.70;;;;;;;;;;5007948;28;20057;-61
2023/03/02 14:11:24;;;;;;;21.83;15.70;;;;;;;;;;5007457;28;20078;-61
2023/03/02 14:13:54;;;;;;;20.07;14.50;;;;;;;;;;5007807;28;20053;-62
2023/03/02 14:16:20;;;;;;;19.13;15.20;;;;;;;;;;5011169;28;20084;-61
2023/03/02 14:18:47;;;;;;;17.83;14.80;;;;;;;;;;5027324;28;20057;-61
2023/03/02 14:21:14;;;;;;;20.13;16.17;;;;;;;;;;5026653;28;20044;-62
2023/03/02 14:23:40;;;;;;;18.83;15.00;;;;;;;;;;5027074;28;20513;-61
2023/03/02 14:26:12;;;;;;;20.07;15.63;;;;;;;;;;5026743;28;20049;-61